sensor_id;sensor_type;location;lat;lon;timestamp;P1;durP1;ratioP1;P2;durP2;ratioP2
9506;SDS011;4791;47.528;9.372;2022-10-26T00:07:00;6.33;;;4.40;;
9506;SDS011;4791;47.528;9.372;2022-10-26T00:22:05;10.30;;;6.07;;
9506;SDS011;4791;47.528;9.372;2022-10-26T00:37:06;10.27;;;5.20;;
9506;SDS011;4791;47.528;9.372;2022-10-26T00:52:06;6.90;;;4.57;;
9506;SDS011;4791;47.528;9.372;2022-10-26T01:07:07;11.40;;;5.20;;
9506;SDS011;4791;47.528;9.372;2022-10-26T01:22:16;7.10;;;4.88;;
9506;SDS011;4791;47.528;9.372;2022-10-26T01:37:29;7.23;;;5.10;;
9506;SDS011;4791;47.528;9.372;2022-10-26T01:52:35;7.83;;;5.20;;
9506;SDS011;4791;47.528;9.372;2022-10-26T02:07:44;9.93;;;4.60;;
9506;SDS011;4791;47.528;9.372;2022-10-26T02:22:55;8.10;;;5.10;;
9506;SDS011;4791;47.528;9.372;2022-10-26T02:37:56;9.40;;;6.10;;
9506;SDS011;4791;47.528;9.372;2022-10-26T02:53:22;10.87;;;6.20;;
9506;SDS011;4791;47.528;9.372;2022-10-26T03:08:25;8.30;;;6.37;;
9506;SDS011;4791;47.528;9.372;2022-10-26T03:23:25;7.67;;;6.03;;
9506;SDS011;4791;47.528;9.372;2022-10-26T03:38:25;7.50;;;5.93;;
9506;SDS011;4791;47.528;9.372;2022-10-26T03:53:26;9.33;;;5.30;;
9506;SDS011;4791;47.528;9.372;2022-10-26T04:08:26;8.95;;;3.63;;
9506;SDS011;4791;47.528;9.372;2022-10-26T04:23:27;4.97;;;2.97;;
9506;SDS011;4791;47.528;9.372;2022-10-26T04:38:27;5.68;;;1.60;;
9506;SDS011;4791;47.528;9.372;2022-10-26T04:53:27;3.90;;;1.60;;
9506;SDS011;4791;47.528;9.372;2022-10-26T05:08:28;5.63;;;4.03;;
9506;SDS011;4791;47.528;9.372;2022-10-26T05:23:31;7.23;;;4.37;;
9506;SDS011;4791;47.528;9.372;2022-10-26T05:38:31;7.00;;;4.90;;
9506;SDS011;4791;47.528;9.372;2022-10-26T05:53:32;12.88;;;6.07;;
9506;SDS011;4791;47.528;9.372;2022-10-26T06:08:34;6.63;;;4.33;;
9506;SDS011;4791;47.528;9.372;2022-10-26T06:39:11;10.23;;;5.10;;
9506;SDS011;4791;47.528;9.372;2022-10-26T07:09:30;9.13;;;6.73;;
9506;SDS011;4791;47.528;9.372;2022-10-26T07:24:31;8.57;;;5.63;;
9506;SDS011;4791;47.528;9.372;2022-10-26T07:39:31;7.90;;;5.18;;
9506;SDS011;4791;47.528;9.372;2022-10-26T07:54:34;6.47;;;3.70;;
9506;SDS011;4791;47.528;9.372;2022-10-26T08:09:37;6.60;;;3.77;;
9506;SDS011;4791;47.528;9.372;2022-10-26T08:24:40;13.50;;;8.63;;
9506;SDS011;4791;47.528;9.372;2022-10-26T08:39:41;6.50;;;4.77;;
9506;SDS011;4791;47.528;9.372;2022-10-26T08:54:49;8.70;;;5.53;;
9506;SDS011;4791;47.528;9.372;2022-10-26T09:25:21;8.57;;;3.97;;
9506;SDS011;4791;47.528;9.372;2022-10-26T09:40:30;7.47;;;3.47;;
9506;SDS011;4791;47.528;9.372;2022-10-26T09:55:46;11.07;;;3.37;;
9506;SDS011;4791;47.528;9.372;2022-10-26T10:10:55;7.33;;;2.90;;
9506;SDS011;4791;47.528;9.372;2022-10-26T10:25:58;7.60;;;4.83;;
9506;SDS011;4791;47.528;9.372;2022-10-26T10:40:59;7.53;;;4.10;;
9506;SDS011;4791;47.528;9.372;2022-10-26T10:56:10;8.73;;;3.80;;
9506;SDS011;4791;47.528;9.372;2022-10-26T11:41:54;5.95;;;3.17;;
9506;SDS011;4791;47.528;9.372;2022-10-26T12:42:44;6.65;;;3.63;;
9506;SDS011;4791;47.528;9.372;2022-10-26T13:13:29;6.82;;;2.50;;
9506;SDS011;4791;47.528;9.372;2022-10-26T13:28:43;7.63;;;2.22;;
9506;SDS011;4791;47.528;9.372;2022-10-26T13:43:46;5.00;;;2.03;;
9506;SDS011;4791;47.528;9.372;2022-10-26T13:59:00;7.22;;;2.20;;
9506;SDS011;4791;47.528;9.372;2022-10-26T14:14:02;4.07;;;2.10;;
9506;SDS011;4791;47.528;9.372;2022-10-26T14:29:03;8.70;;;2.40;;
9506;SDS011;4791;47.528;9.372;2022-10-26T14:44:15;9.65;;;2.55;;
9506;SDS011;4791;47.528;9.372;2022-10-26T15:14:25;9.65;;;3.10;;
9506;SDS011;4791;47.528;9.372;2022-10-26T15:44:43;9.35;;;2.15;;
9506;SDS011;4791;47.528;9.372;2022-10-26T15:59:48;9.40;;;2.10;;
9506;SDS011;4791;47.528;9.372;2022-10-26T16:14:50;9.95;;;2.78;;
9506;SDS011;4791;47.528;9.372;2022-10-26T16:29:53;9.25;;;3.10;;
9506;SDS011;4791;47.528;9.372;2022-10-26T16:44:56;7.97;;;3.22;;
9506;SDS011;4791;47.528;9.372;2022-10-26T16:59:56;10.73;;;4.80;;
9506;SDS011;4791;47.528;9.372;2022-10-26T17:14:57;11.40;;;4.85;;
9506;SDS011;4791;47.528;9.372;2022-10-26T17:29:59;10.20;;;4.30;;
9506;SDS011;4791;47.528;9.372;2022-10-26T17:44:59;9.93;;;4.18;;
9506;SDS011;4791;47.528;9.372;2022-10-26T18:15:00;12.03;;;4.30;;
9506;SDS011;4791;47.528;9.372;2022-10-26T18:45:03;12.38;;;4.65;;
9506;SDS011;4791;47.528;9.372;2022-10-26T19:00:04;14.05;;;5.50;;
9506;SDS011;4791;47.528;9.372;2022-10-26T19:15:09;7.53;;;3.50;;
9506;SDS011;4791;47.528;9.372;2022-10-26T19:30:10;10.05;;;4.53;;
9506;SDS011;4791;47.528;9.372;2022-10-26T19:45:11;16.93;;;4.40;;
9506;SDS011;4791;47.528;9.372;2022-10-26T20:00:11;10.23;;;5.03;;
